Terminal Aerodrome Forecast
Issued by NWS Twin Cities, MN

Home | Current Version | Previous Version | Graphics & Text | Print | Product List | Glossary On
Versions: 1 2 3 4 5 6 7 8 9 10 11 12 13 14 15
000
FTUS43 KMPX 281720
TAFEAU
TAF
KEAU 281720Z 2818/0118 19008KT P6SM FEW200
     FM010500 19007KT P6SM OVC030
     FM010800 19007KT 6SM -SN OVC025
     FM011300 21008KT P6SM SCT030 BKN100
     FM011600 24007KT P6SM SCT250=

USA.gov is the U.S. government's official web portal to all federal, state and local government web resources and services.